Allendale, MI (49401)

17:24 EDT le 27 août 2015 (GMT -0400)
Trail Creek Pass | | Change Station
CLOSE
Current Station
Stations météorologiques personnelles
Location: Coopersville, MI
Altitude: 659 ft
Stations météo à proximité

Alt. 659 ft 43.01 °N, 86.00 °W | Updated 7 seconds ago

Couvert
Couvert
67.6 ° F
Paraît 67.6 ° F
N
0.0
Vent Variable Vent de ONO
Gusts 2.0 mph

Aujourd'hui
Haut(e) -- | Bas -- ° F
--% Risque de précip.
Hier
Haut(e) -- | Bas -- ° F
Precip. -- pouce
7:02 AM 8:27 PM
Lune gibbeuse croissante, 95% visible
Pression 30.18 pouce
Visibilité 10.0 Miles terrestres
Nuages Couvert 4900 ft
Point de rosée 61 ° F
Humidité 78%
Précipitations 0.00 pouce
Profondeur de la couche neigeuse Non disponible.
UV 1 sur 12
Pollen 9.70 sur 12
Qualité de l'air Non disponible.
Flu Activity Non disponible.
METAR KBIV 272053Z AUTO VRB06KT 10SM OVC049 21/14 A3018 RMK AO2 SLP218 T02110144 58002
Pression 30.18 pouce
Visibilité 10.0 Miles terrestres
Nuages Couvert 4900 ft
Point de rosée 61 ° F
Humidité 78%
Précipitations 0.00 pouce
Profondeur de la couche neigeuse Non disponible.
UV 1 sur 12
Pollen 9.70 sur 12
Qualité de l'air Non disponible.
Flu Activity Non disponible.
METAR KBIV 272053Z AUTO VRB06KT 10SM OVC049 21/14 A3018 RMK AO2 SLP218 T02110144 58002

10-Day Weather Forecast

×

Almanac

Astronomie

Aug. 27, 2015 Lever Coucher
Temps réel
Crépuscule civil
Crépuscule nautique
Crépuscule astronomique
Lune
Durée de lumière visible
Longueur du jour
Tomorrow will be .
, % of the Moon is Illuminated

Extrêmes aujourd'hui

State Highs State Lows

Community

WunderPhotos

Upload Photos

1,850,235 Photos téléchargées !

WunderBlogs® & News

Nearby

Qualité de l'air

  Qualité de l'air Indice de la qualité de l'air Polluant
Not available.

Épaisseur de neige

Station Depth Altitude

Activité sismique

Ville Distance Mag. Time & Date
Minimum magnitude displayed is 2.5.

Températures des eaux côtières

Lieu Température

Stations

Stations météo à proximité

Emplacement de la station Température Refroidissement éolien Point de rosée Humidité Vent Precip. Alt. Mise à jour Type